Latest Weather Observations for Point Perpendicular

IDN60801

Issued at 6:32 pm EST Saturday 23 May 2015 (issued every 30 minutes, with the page automatically refreshed every 10 minutes)

About weather observations | Map of weather stations | Latest weather observations for NSW | Other Formats
Station Details ID: 068151 Name: POINT PERPENDICULAR AWS Lat: -35.09 Lon: 150.80 Height: 85.0 m
Data from the previous 72 hours. | See also: Recent months at Point Perpendicular
Date/Time
EST
Temp
°C
App
Temp
°C
Dew
Point
Rel
Hum
%
Delta-T
°C
Wind Press
QNH
hPa
Press
MSL
hPa
Rain
since 9 am
mm
Dir
 
Spd
km/h
Gust
km/h
Spd
kts
Gust
kts
23/06:30pm 14.8 12.6 7.8 63 3.5 SW 9 11 5 6 1029.6 1029.5 0.0
23/06:00pm 14.7 12.0 7.5 62 3.5 SSW 11 15 6 8 1029.5 1029.4 0.0
23/05:30pm 14.7 12.0 7.3 61 3.7 SSW 11 17 6 9 1029.1 1029.0 0.0
23/05:00pm 14.4 11.4 7.7 64 3.3 SSW 13 22 7 12 1029.0 1028.9 0.0
23/04:30pm 14.6 11.2 7.6 63 3.5 SSW 15 22 8 12 1028.8 1028.7 0.0
23/04:00pm 14.8 11.7 7.4 61 3.6 SSW 13 24 7 13 1028.8 1028.7 0.0
23/03:30pm 14.7 10.6 7.7 63 3.5 SSW 19 26 10 14 1028.8 1028.7 0.0
23/03:00pm 14.8 10.7 7.8 63 3.5 SSW 19 30 10 16 1028.4 1028.3 0.0
23/02:30pm 14.7 10.1 8.0 64 3.4 SW 22 32 12 17 1028.2 1028.1 0.0
23/02:00pm 14.9 10.2 7.7 62 3.6 SW 22 32 12 17 1028.4 1028.3 0.0
23/01:30pm 14.5 10.4 8.0 65 3.3 SSW 19 30 10 16 1028.5 1028.4 0.0
23/01:00pm 14.6 10.0 8.3 66 3.2 SSW 22 30 12 16 1028.6 1028.5 0.0
23/12:30pm 14.6 10.0 8.1 65 3.3 SSW 22 33 12 18 1028.6 1028.5 0.0
23/12:00pm 14.7 9.6 7.7 63 3.5 SSW 24 33 13 18 1028.9 1028.8 0.0
23/11:30am 14.5 9.5 8.0 65 3.3 SSW 24 33 13 18 1029.2 1029.1 0.0
23/11:00am 14.3 10.0 7.8 65 3.2 SSW 20 33 11 18 1029.5 1029.4 0.0
23/10:30am 14.2 9.6 8.2 67 3.0 SW 22 30 12 16 1029.9 1029.8 0.0
23/10:00am 14.1 9.8 7.9 66 3.1 SW 20 32 11 17 1029.8 1029.7 0.0
23/09:30am 14.0 9.8 8.2 68 2.9 SW 20 30 11 16 1029.5 1029.4 0.0
23/09:00am 14.1 9.5 8.1 67 3.0 SW 22 32 12 17 1029.2 1029.1 4.2
23/08:30am 13.9 9.9 8.1 68 2.9 SW 19 28 10 15 1029.0 1028.9 4.2
23/08:00am 13.6 10.6 7.6 67 2.9 SW 13 22 7 12 1028.9 1028.8 4.2
23/07:30am 13.4 10.0 7.6 68 2.9 SW 15 28 8 15 1028.7 1028.6 4.2
23/07:00am 13.6 9.9 8.0 69 2.8 SW 17 26 9 14 1028.3 1028.2 4.2
23/06:30am 13.8 8.8 8.0 68 2.9 SSW 24 33 13 18 1027.7 1027.6 4.2
23/06:00am 13.2 8.9 7.9 70 2.6 SW 20 30 11 16 1027.5 1027.4 4.2
23/05:30am 13.1 9.0 8.0 71 2.5 SSW 19 28 10 15 1027.1 1027.0 4.2
23/05:00am 12.5 8.2 7.0 69 2.6 SW 19 30 10 16 1027.3 1027.2 4.2
23/04:30am 12.3 7.8 6.8 69 2.6 SW 20 33 11 18 1027.5 1027.4 4.2
23/04:00am 12.3 7.8 7.0 70 2.5 SW 20 30 11 16 1027.3 1027.2 4.2
23/03:30am 12.9 8.6 7.8 71 2.5 SW 20 32 11 17 1027.2 1027.1 4.2
23/03:00am 12.9 7.8 7.6 70 2.6 SW 24 33 13 18 1027.2 1027.1 4.2
23/02:30am 13.0 7.6 7.9 71 2.5 SW 26 41 14 22 1027.1 1027.0 4.2
23/02:00am 13.4 8.2 8.7 73 2.4 SSW 26 41 14 22 1026.9 1026.8 4.2
23/01:31am 14.3 8.3 8.5 68 2.9 SSW 30 48 16 26 1026.2 1026.1 4.2
23/01:30am 14.2 7.8 8.4 68 2.9 SSW 32 48 17 26 1026.2 1026.1 4.2
23/01:00am 14.1 7.7 8.5 69 2.8 SSW 32 54 17 29 1026.0 1025.9 4.2
23/12:30am 14.4 7.9 8.8 69 2.8 SSW 33 52 18 28 1026.3 1026.2 4.2
23/12:15am 14.5 8.1 9.5 72 2.6 SSW 33 52 18 28 1026.2 1026.1 4.2
23/12:00am 14.4 7.6 9.4 72 2.6 SSW 35 52 19 28 1025.8 1025.7 4.2
 
Date/Time
EST
Temp
°C
App
Temp
°C
Dew
Point
Rel
Hum
%
Delta-T
°C
Wind Press
QNH
hPa
Press
MSL
hPa
Rain
since 9 am
mm
Dir
 
Spd
km/h
Gust
km/h
Spd
kts
Gust
kts
22/11:30pm 14.4 8.5 9.2 71 2.7 SSW 30 50 16 27 1025.9 1025.8 4.2
22/11:00pm 13.7 7.7 10.9 83 1.5 S 33 52 18 28 1025.9 1025.8 4.2
22/10:30pm 13.7 7.9 10.9 83 1.5 SSW 32 50 17 27 1025.4 1025.3 4.0
22/10:00pm 14.5 8.7 11.5 82 1.6 S 33 54 18 29 1024.4 1024.3 4.0
22/09:30pm 13.7 8.2 12.4 92 0.7 SSW 33 59 18 32 1024.8 1024.7 4.0
22/09:00pm 13.3 8.6 12.0 92 0.7 S 28 52 15 28 1024.9 1024.8 3.4
22/08:30pm 13.8 8.1 11.3 85 1.3 S 32 52 17 28 1024.7 1024.6 2.2
22/08:00pm 13.9 9.1 11.6 86 1.2 SSW 28 46 15 25 1024.9 1024.8 2.0
22/07:30pm 15.0 9.2 9.6 70 2.8 S 30 52 16 28 1024.7 1024.6 1.8
22/07:01pm 14.8 9.2 10.2 74 2.4 S 30 50 16 27 1024.1 1024.0 1.8
22/07:00pm 14.9 9.3 10.1 73 2.5 S 30 44 16 24 1024.1 1024.0 1.8
22/06:30pm 14.0 8.6 10.8 81 1.7 S 30 57 16 31 1024.2 1024.1 1.8
22/06:00pm 14.3 8.6 11.1 81 1.7 S 32 52 17 28 1023.4 1023.4 1.8
22/05:34pm 15.2 9.3 9.1 67 3.1 S 30 48 16 26 1023.2 1023.2 1.6
22/05:30pm 15.1 9.2 9.0 67 3.1 S 30 46 16 25 1023.2 1023.2 1.6
22/05:00pm 15.1 8.2 10.3 73 2.5 S 37 59 20 32 1022.5 1022.5 1.6
22/04:30pm 14.9 7.5 9.7 71 2.7 SSE 39 57 21 31 1022.2 1022.2 1.6
22/04:00pm 13.2 6.8 10.7 85 1.3 SSE 35 54 19 29 1021.9 1021.9 1.6
22/03:30pm 13.9 6.7 10.5 80 1.8 S 39 63 21 34 1021.7 1021.7 1.2
22/03:00pm 14.8 7.2 10.6 76 2.2 S 41 65 22 35 1021.1 1021.0 1.2
22/02:30pm 14.1 8.3 10.7 80 1.8 S 32 57 17 31 1020.6 1020.5 1.2
22/02:00pm 13.7 5.8 10.9 83 1.5 SSE 43 63 23 34 1020.9 1020.8 1.0
22/01:30pm 13.4 6.1 11.5 88 1.0 S 41 69 22 37 1020.6 1020.5 1.0
22/01:00pm 15.1 6.9 9.7 70 2.8 S 43 65 23 35 1020.3 1020.2 0.8
22/12:30pm 14.8 8.1 9.8 72 2.6 S 35 54 19 29 1020.1 1020.0 0.8
22/12:00pm 14.6 6.5 10.2 75 2.3 S 43 69 23 37 1020.1 1020.0 0.8
22/11:30am 14.4 7.5 10.4 77 2.1 S 37 63 20 34 1020.3 1020.2 0.8
22/11:00am 15.0 7.6 10.0 72 2.6 SSE 39 63 21 34 1020.1 1020.0 0.6
22/10:30am 15.6 7.1 10.8 73 2.6 S 46 72 25 39 1019.9 1019.8 0.6
22/10:00am 15.6 7.5 10.8 73 2.6 SSE 44 72 24 39 1018.9 1018.8 0.6
22/09:30am 15.0 7.5 12.0 82 1.6 SSE 43 69 23 37 1018.4 1018.3 0.4
22/09:00am 13.7 6.7 12.4 92 0.7 S 41 69 22 37 1018.6 1018.5 60.6
22/08:30am 15.5 9.3 12.6 83 1.6 SSE 37 59 20 32 1017.9 1017.8 59.0
22/08:00am 15.5 9.7 12.8 84 1.5 SSE 35 61 19 33 1017.4 1017.3 58.8
22/07:30am 16.2 10.3 12.4 78 2.1 SSE 35 61 19 33 1017.3 1017.2 58.8
22/07:09am 15.5 11.2 13.2 86 1.3 SSE 28 61 15 33 1016.4 1016.3 58.8
22/07:00am 14.7 11.1 13.2 91 0.8 S 24 43 13 23 1017.6 1017.5 58.8
22/06:30am 14.9 11.0 13.4 91 0.8 SSE 26 43 14 23 1017.3 1017.2 54.0
22/06:00am 14.8 10.3 13.7 93 0.6 S 30 48 16 26 1016.7 1016.6 53.2
22/05:55am 14.8 10.3 13.7 93 0.6 S 30 48 16 26 1016.8 1016.7 53.2
22/05:30am 14.6 9.5 13.0 90 0.9 S 32 48 17 26 1016.4 1016.3 53.2
22/05:00am 14.6 10.2 12.8 89 1.0 S 28 46 15 25 1016.1 1016.0 53.0
22/04:50am 14.4 10.0 13.0 91 0.8 S 28 50 15 27 1016.1 1016.0 53.0
22/04:30am 14.8 11.7 13.5 92 0.7 S 22 33 12 18 1016.2 1016.1 51.8
22/04:00am 13.4 10.4 12.5 94 0.5 SW 20 35 11 19 1016.3 1016.2 51.2
22/03:30am 14.4 11.6 13.1 92 0.7 SSW 20 39 11 21 1016.4 1016.3 46.4
22/03:00am 14.1 11.4 13.5 96 0.3 S 20 30 11 16 1016.8 1016.7 45.4
22/02:30am 13.7 10.5 13.2 97 0.3 SSW 22 33 12 18 1016.3 1016.2 44.2
22/02:00am 14.6 10.6 14.1 97 0.3 S 28 48 15 26 1016.0 1015.9 43.0
22/01:38am 15.1 11.4 14.9 99 0.1 SSW 28 48 15 26 1016.0 1015.9 42.0
22/01:30am 14.4 11.2 14.2 99 0.1 SW 24 41 13 22 1016.6 1016.5 41.8
22/01:00am 13.5 9.1 13.0 97 0.3 SW 28 39 15 21 1017.3 1017.2 38.8
22/12:30am 13.7 10.0 12.6 93 0.6 SW 24 41 13 22 1017.4 1017.3 32.4
22/12:00am 14.8 10.7 13.7 93 0.6 SSW 28 48 15 26 1017.1 1017.0 31.8
 
Date/Time
EST
Temp
°C
App
Temp
°C
Dew
Point
Rel
Hum
%
Delta-T
°C
Wind Press
QNH
hPa
Press
MSL
hPa
Rain
since 9 am
mm
Dir
 
Spd
km/h
Gust
km/h
Spd
kts
Gust
kts
21/11:34pm 14.5 9.4 13.0 91 0.8 SSW 32 50 17 27 1016.8 1016.7 31.6
21/11:30pm 14.6 9.3 13.0 90 0.9 SSW 33 50 18 27 1016.6 1016.5 31.4
21/11:00pm 14.5 8.4 13.0 91 0.8 S 37 61 20 33 1016.4 1016.3 29.8
21/10:30pm 14.1 8.7 12.7 91 0.8 SSW 33 52 18 28 1017.2 1017.1 28.0
21/10:20pm 14.1 9.4 12.0 87 1.1 SSW 28 52 15 28 1016.5 1016.4 24.6
21/10:00pm 14.8 9.7 13.2 90 0.9 SSW 32 46 17 25 1017.2 1017.1 23.4
21/09:56pm 14.9 10.7 13.4 91 0.8 SSW 28 46 15 25 1017.1 1017.0 23.4
21/09:30pm 13.5 9.6 12.2 92 0.7 SSW 24 35 13 19 1017.8 1017.7 19.8
21/09:00pm 14.6 10.2 13.0 90 0.9 SSW 28 41 15 22 1017.7 1017.6 18.0
21/08:30pm 16.1 11.6 12.5 79 2.0 SSW 28 46 15 25 1017.2 1017.1 17.6
21/08:21pm 16.2 11.6 12.4 78 2.1 SSW 28 46 15 25 1017.4 1017.3 17.6
21/08:00pm 16.6 12.0 12.4 76 2.3 SSW 28 43 15 23 1017.4 1017.3 17.6
21/07:30pm 16.7 12.0 12.0 74 2.6 S 28 46 15 25 1017.4 1017.3 17.6
21/07:28pm 16.8 12.1 12.1 74 2.6 SSW 28 46 15 25 1017.5 1017.4 17.6
21/07:00pm 16.6 12.6 11.9 74 2.6 S 24 43 13 23 1017.5 1017.4 17.6
21/06:30pm 16.6 11.6 11.1 70 3.0 S 28 41 15 22 1017.7 1017.6 17.6
21/06:00pm 16.6 12.5 11.3 71 2.9 S 24 39 13 21 1017.7 1017.6 17.6
21/05:30pm 16.3 12.2 12.7 79 2.0 SSW 26 41 14 22 1017.5 1017.4 17.6
21/05:00pm 16.3 12.1 12.5 78 2.1 S 26 41 14 22 1017.5 1017.4 17.6
21/04:30pm 16.4 11.9 12.6 78 2.1 S 28 41 15 22 1017.1 1017.0 17.6
21/04:27pm 16.5 12.1 12.8 79 2.1 S 28 46 15 25 1017.1 1017.0 17.6
21/04:00pm 16.5 12.3 12.5 77 2.2 S 26 41 14 22 1017.2 1017.1 17.6
21/03:30pm 16.3 12.7 13.2 82 1.7 S 24 35 13 19 1016.7 1016.6 17.4
21/03:18pm 16.7 12.5 13.4 81 1.9 S 28 46 15 25 1016.6 1016.5 17.4
21/03:00pm 16.7 13.3 13.6 82 1.8 S 24 35 13 19 1016.7 1016.6 17.4
21/02:30pm 17.0 13.6 13.7 81 1.9 SSW 24 41 13 22 1016.4 1016.3 17.4
21/02:00pm 17.2 13.5 12.7 75 2.5 SSW 24 33 13 18 1017.0 1016.9 17.4
21/01:30pm 16.9 13.0 12.2 74 2.6 SSW 24 33 13 18 1017.2 1017.1 17.4
21/01:00pm 17.1 13.9 11.8 71 2.9 SSW 20 32 11 17 1017.6 1017.5 17.4
21/12:30pm 16.9 12.7 11.2 69 3.1 SSW 24 32 13 17 1017.8 1017.7 17.4
21/12:00pm 16.7 13.8 11.0 69 3.1 SW 17 24 9 13 1018.3 1018.2 17.4
21/11:30am 16.4 14.0 11.3 72 2.8 SW 15 24 8 13 1018.6 1018.5 17.4
21/11:00am 16.2 13.8 11.4 73 2.6 SW 15 24 8 13 1018.8 1018.7 17.4
21/10:30am 15.8 13.4 11.4 75 2.4 SW 15 22 8 12 1018.8 1018.7 17.4
21/10:00am 15.3 14.6 11.9 80 1.8 W 7 15 4 8 1018.7 1018.6 17.4
21/09:30am 14.3 13.3 12.3 88 1.1 SW 9 15 5 8 1019.0 1018.9 16.4
21/09:00am 15.2 12.7 12.3 83 1.6 SW 17 28 9 15 1018.6 1018.5 4.4
21/08:30am 16.7 15.6 13.0 79 2.1 WSW 11 15 6 8 1018.4 1018.3 1.8
21/08:00am 15.3 13.3 11.5 78 2.0 WSW 13 20 7 11 1018.1 1018.0 1.8
21/07:30am 15.1 13.1 10.3 73 2.5 WSW 11 15 6 8 1017.9 1017.8 1.8
21/07:00am 14.8 12.4 10.0 73 2.5 W 13 15 7 8 1017.5 1017.4 1.8
21/06:30am 14.5 12.9 10.1 75 2.3 W 9 13 5 7 1017.1 1017.0 1.8
21/06:00am 13.7 11.2 10.9 83 1.5 W 15 20 8 11 1016.7 1016.6 1.8
21/05:30am 14.0 11.7 10.4 79 1.9 W 13 15 7 8 1016.4 1016.3 1.8
21/05:00am 14.9 12.7 10.9 77 2.1 WNW 13 17 7 9 1016.3 1016.2 1.8
21/04:30am 15.2 13.0 10.8 75 2.3 W 13 15 7 8 1016.0 1015.9 1.8
21/04:00am 15.3 13.7 11.5 78 2.0 WNW 11 13 6 7 1015.8 1015.7 1.8
21/03:30am 14.9 13.3 11.7 81 1.7 NW 11 15 6 8 1015.9 1015.8 1.8
21/03:00am 15.3 13.9 12.1 81 1.7 NW 11 15 6 8 1016.2 1016.1 1.8
21/02:30am 15.6 13.9 12.5 82 1.7 WNW 13 22 7 12 1015.9 1015.8 1.8
21/02:00am 15.5 14.9 12.4 82 1.7 WNW 7 11 4 6 1015.8 1015.7 1.8
21/01:30am 16.0 14.8 12.7 81 1.8 NW 11 17 6 9 1015.7 1015.6 1.8
21/01:00am 16.1 15.0 13.0 82 1.7 NW 11 17 6 9 1015.8 1015.7 1.8
21/12:30am 16.3 14.7 12.8 80 1.9 NW 13 20 7 11 1015.7 1015.6 1.8
21/12:00am 16.6 15.1 13.1 80 2.0 NW 13 20 7 11 1015.8 1015.7 1.8
 
Date/Time
EST
Temp
°C
App
Temp
°C
Dew
Point
Rel
Hum
%
Delta-T
°C
Wind Press
QNH
hPa
Press
MSL
hPa
Rain
since 9 am
mm
Dir
 
Spd
km/h
Gust
km/h
Spd
kts
Gust
kts
20/11:30pm 16.4 15.4 13.5 83 1.6 NW 11 20 6 11 1016.0 1015.9 1.8
20/11:00pm 16.2 15.2 13.5 84 1.5 WNW 11 17 6 9 1016.0 1015.9 1.8
20/10:30pm 16.2 15.4 12.9 81 1.8 WNW 9 13 5 7 1016.3 1016.2 1.8
20/10:00pm 16.2 15.5 13.3 83 1.6 W 9 15 5 8 1016.2 1016.1 1.8
20/09:30pm 16.0 14.5 11.8 76 2.3 NW 11 13 6 7 1016.3 1016.2 1.8
20/09:00pm 15.7 16.2 12.8 83 1.6 NW 2 7 1 4 1015.9 1015.8 1.8
20/08:30pm 15.3 13.7 12.8 85 1.4 NW 13 20 7 11 1016.2 1016.1 1.6
20/08:00pm 18.5 17.9 15.6 83 1.7 N 13 17 7 9 1015.6 1015.5 0.0
20/07:30pm 17.9 17.1 15.2 84 1.6 N 13 17 7 9 1015.1 1015.0 0.0
20/07:00pm 17.9 17.1 15.0 83 1.7 NNE 13 15 7 8 1014.8 1014.7 0.0

Other Formats:

Comma delimited format used in spreadsheet applications
http://www.bom.gov.au/fwo/IDN60801/IDN60801.95940.axf

JavaScript Object Notation format (JSON) in row-major order
http://www.bom.gov.au/fwo/IDN60801/IDN60801.95940.json